Time;durP1;ratioP1;P1;durP2;ratioP2;P2;SDS_P1;SDS_P2;PMS_P1;PMS_P2;Temp;Humidity;BMP_temperature;BMP_pressure;BME280_temperature;BME280_humidity;BME280_pressure;Samples;Min_cycle;Max_cycle;Signal;HPM_P1;HPM_P2
2021/03/30 00:00:33;;;;;;;9.20;5.40;;;12.90;1.00;;;;;;5026105;28;20519;-79
2021/03/30 00:02:59;;;;;;;7.90;5.30;;;12.90;1.00;;;;;;5030271;28;20947;-78
2021/03/30 00:05:26;;;;;;;6.73;5.00;;;12.80;1.00;;;;;;5027636;28;20448;-78
2021/03/30 00:07:52;;;;;;;9.93;5.40;;;12.80;1.00;;;;;;5023628;28;20454;-79
2021/03/30 00:10:21;;;;;;;7.87;5.33;;;12.80;1.00;;;;;;5038609;28;20930;-78
2021/03/30 00:12:48;;;;;;;8.23;5.37;;;12.60;1.00;;;;;;5035278;28;20443;-77
2021/03/30 00:15:15;;;;;;;11.33;5.43;;;12.60;1.00;;;;;;5027225;28;20440;-77
2021/03/30 00:17:41;;;;;;;8.17;5.80;;;12.60;1.00;;;;;;5035736;28;20464;-78
2021/03/30 00:20:10;;;;;;;7.97;5.43;;;12.60;1.00;;;;;;5031367;28;20456;-78
2021/03/30 00:22:37;;;;;;;6.43;5.10;;;12.40;1.00;;;;;;5034039;28;20513;-78
2021/03/30 00:25:04;;;;;;;6.43;4.87;;;12.40;1.00;;;;;;5023073;28;20437;-76
2021/03/30 00:27:30;;;;;;;8.33;5.33;;;12.30;1.00;;;;;;5024240;28;20459;-78
2021/03/30 00:29:58;;;;;;;5.40;4.90;;;12.30;1.00;;;;;;5046477;28;20441;-76
2021/03/30 00:32:24;;;;;;;6.10;4.70;;;12.20;1.00;;;;;;5025619;28;21089;-76
2021/03/30 00:34:50;;;;;;;6.20;5.00;;;12.20;1.00;;;;;;5022259;28;20456;-78
2021/03/30 00:37:16;;;;;;;5.57;4.53;;;12.10;1.00;;;;;;5020964;28;20486;-77
2021/03/30 00:39:43;;;;;;;7.00;5.57;;;12.10;1.00;;;;;;5047216;28;20433;-80
2021/03/30 00:42:09;;;;;;;7.97;5.20;;;12.00;1.00;;;;;;5028168;28;20531;-75
2021/03/30 00:44:36;;;;;;;6.20;4.80;;;12.00;1.00;;;;;;5029374;28;20405;-79
2021/03/30 00:47:04;;;;;;;7.13;5.53;;;11.90;1.00;;;;;;5036015;28;20598;-77
2021/03/30 00:49:32;;;;;;;6.03;5.40;;;11.90;1.00;;;;;;5031689;28;20453;-78
2021/03/30 00:51:59;;;;;;;6.97;5.33;;;11.90;1.00;;;;;;5035128;28;20455;-75
2021/03/30 00:54:27;;;;;;;7.50;5.43;;;11.80;1.00;;;;;;5032271;28;20531;-75
2021/03/30 00:56:54;;;;;;;11.40;4.97;;;11.80;1.00;;;;;;5036364;28;20475;-76
2021/03/30 00:59:22;;;;;;;8.40;6.60;;;11.70;1.00;;;;;;5032041;28;20460;-77
2021/03/30 01:01:48;;;;;;;7.33;4.50;;;11.70;1.00;;;;;;5033733;28;20476;-76
2021/03/30 01:04:15;;;;;;;7.10;4.80;;;11.60;1.00;;;;;;5033390;28;20417;-77
2021/03/30 01:06:41;;;;;;;6.07;4.80;;;11.60;1.00;;;;;;5031084;28;20474;-78
2021/03/30 01:09:28;;;;;;;7.73;5.17;;;11.60;1.00;;;;;;5045549;28;20822;-78
2021/03/30 01:12:06;;;;;;;7.43;5.40;;;11.50;1.00;;;;;;5028865;28;20445;-77
2021/03/30 01:14:57;;;;;;;7.40;5.43;;;11.50;1.00;;;;;;5029011;28;20484;-77
2021/03/30 01:17:33;;;;;;;7.67;5.43;;;11.50;1.00;;;;;;5033259;28;20460;-79
2021/03/30 01:20:24;;;;;;;11.17;5.27;;;11.50;1.00;;;;;;5030483;28;20460;-78
2021/03/30 01:23:16;;;;;;;8.10;5.67;;;11.40;1.00;;;;;;5030163;28;20499;-77
2021/03/30 01:25:50;;;;;;;6.30;4.70;;;11.30;1.00;;;;;;5034718;28;20437;-78
2021/03/30 01:28:26;;;;;;;10.63;6.20;;;11.20;1.00;;;;;;5032744;28;20436;-78
2021/03/30 01:30:54;;;;;;;7.27;5.77;;;11.20;1.00;;;;;;5028038;28;20623;-77
2021/03/30 01:33:26;;;;;;;6.20;5.00;;;11.20;1.00;;;;;;5024184;28;21346;-77
2021/03/30 01:35:53;;;;;;;5.50;4.93;;;11.20;1.00;;;;;;5030169;28;20441;-77
2021/03/30 01:38:21;;;;;;;7.73;5.53;;;11.20;1.00;;;;;;5034910;28;20461;-78
2021/03/30 01:40:51;;;;;;;6.77;5.40;;;11.10;1.00;;;;;;5033931;28;20408;-77
2021/03/30 01:43:19;;;;;;;7.23;5.60;;;11.10;1.00;;;;;;5034418;28;20466;-76
2021/03/30 01:45:45;;;;;;;8.93;5.40;;;11.10;1.00;;;;;;5033864;28;20532;-76
2021/03/30 01:48:13;;;;;;;7.20;5.53;;;11.10;1.00;;;;;;5028214;28;20225;-78
2021/03/30 01:50:40;;;;;;;6.55;5.68;;;11.00;1.00;;;;;;5031989;28;22131;-78
2021/03/30 01:53:09;;;;;;;11.20;6.30;;;11.00;1.00;;;;;;5026047;28;20225;-76
2021/03/30 01:55:35;;;;;;;11.07;5.80;;;10.90;1.00;;;;;;5029033;28;20478;-77
2021/03/30 01:58:02;;;;;;;8.53;5.70;;;10.90;1.00;;;;;;5034825;28;21579;-77
2021/03/30 02:00:34;;;;;;;8.50;5.73;;;10.80;1.00;;;;;;5036666;28;20528;-78
2021/03/30 02:03:01;;;;;;;11.50;8.47;;;10.80;1.00;;;;;;5035932;28;20452;-77
2021/03/30 02:05:29;;;;;;;11.80;6.00;;;10.70;1.00;;;;;;5038414;28;20433;-77
2021/03/30 02:07:59;;;;;;;9.80;6.33;;;10.70;1.00;;;;;;5049806;28;20442;-78
2021/03/30 02:10:32;;;;;;;8.50;7.00;;;10.60;1.00;;;;;;5034360;28;20454;-77
2021/03/30 02:13:00;;;;;;;12.00;6.30;;;10.60;1.00;;;;;;5043936;28;20655;-76
2021/03/30 02:15:27;;;;;;;10.35;5.82;;;10.50;1.00;;;;;;5028203;28;20257;-76
2021/03/30 02:18:00;;;;;;;11.30;6.50;;;10.50;1.00;;;;;;5041519;28;21108;-78
2021/03/30 02:20:30;;;;;;;8.80;6.82;;;10.40;1.00;;;;;;5029924;28;20611;-78
2021/03/30 02:23:00;;;;;;;7.53;6.75;;;10.40;1.00;;;;;;5030936;28;20224;-76
2021/03/30 02:25:28;;;;;;;8.75;6.35;;;10.40;1.00;;;;;;5034125;28;20241;-78
2021/03/30 02:27:58;;;;;;;8.65;6.13;;;10.30;1.00;;;;;;5033475;28;20228;-76
2021/03/30 02:30:27;;;;;;;8.90;5.70;;;10.30;1.00;;;;;;5032650;28;20312;-78
2021/03/30 02:32:54;;;;;;;9.90;6.00;;;10.20;1.00;;;;;;5030734;28;20466;-76
2021/03/30 02:35:24;;;;;;;10.07;5.70;;;10.20;1.00;;;;;;5028453;28;20497;-77
2021/03/30 02:37:52;;;;;;;13.00;6.25;;;10.10;1.00;;;;;;5049989;28;20223;-79
2021/03/30 02:40:22;;;;;;;8.25;6.15;;;10.10;1.00;;;;;;5031216;28;20241;-79
2021/03/30 02:42:50;;;;;;;8.30;6.35;;;10.10;1.00;;;;;;5030047;28;20235;-77
2021/03/30 02:45:19;;;;;;;11.05;6.28;;;10.00;1.00;;;;;;5033548;28;20313;-78
2021/03/30 02:47:48;;;;;;;11.57;5.93;;;9.90;1.00;;;;;;5031306;28;20230;-79
2021/03/30 02:50:15;;;;;;;12.98;6.82;;;9.90;1.00;;;;;;5032739;28;20228;-79
2021/03/30 02:52:42;;;;;;;12.82;9.07;;;9.90;1.00;;;;;;5046406;28;20226;-78
2021/03/30 02:55:10;;;;;;;9.10;7.40;;;9.90;1.00;;;;;;5042636;28;21201;-78
2021/03/30 02:57:39;;;;;;;9.13;6.20;;;9.80;1.00;;;;;;5037033;28;20282;-78
2021/03/30 03:00:09;;;;;;;9.75;6.43;;;9.80;1.00;;;;;;5032178;28;20249;-77
2021/03/30 03:02:37;;;;;;;10.98;7.15;;;9.80;1.00;;;;;;5034634;28;20627;-78
2021/03/30 03:05:04;;;;;;;11.27;6.28;;;9.80;1.00;;;;;;5032636;28;20684;-76
2021/03/30 03:07:31;;;;;;;11.00;6.38;;;9.70;1.00;;;;;;5038486;28;20233;-78
2021/03/30 03:10:01;;;;;;;9.60;6.47;;;9.70;1.00;;;;;;5029103;28;20375;-76
2021/03/30 03:12:29;;;;;;;13.95;6.25;;;9.70;1.00;;;;;;5035983;28;20235;-79
2021/03/30 03:14:55;;;;;;;9.68;6.53;;;9.60;1.00;;;;;;5030975;28;21168;-77
2021/03/30 03:17:23;;;;;;;8.73;5.80;;;9.60;1.00;;;;;;5041932;28;20238;-79
2021/03/30 03:19:50;;;;;;;8.50;6.25;;;9.60;1.00;;;;;;5031988;28;20900;-78
2021/03/30 03:22:16;;;;;;;13.82;6.68;;;9.60;1.00;;;;;;5033724;28;20562;-77
2021/03/30 03:24:45;;;;;;;11.13;7.50;;;9.60;1.00;;;;;;5032681;28;20221;-77
2021/03/30 03:27:12;;;;;;;9.60;6.72;;;9.60;1.00;;;;;;5036831;28;20324;-75
2021/03/30 03:29:40;;;;;;;10.20;7.70;;;9.60;1.00;;;;;;5036811;28;20239;-77
2021/03/30 03:32:07;;;;;;;7.78;6.65;;;9.50;1.00;;;;;;5035194;28;20227;-75
2021/03/30 03:34:33;;;;;;;12.82;7.70;;;9.50;1.00;;;;;;5029458;28;21543;-76
2021/03/30 03:37:00;;;;;;;9.55;6.72;;;9.40;1.00;;;;;;5034415;28;20270;-76
2021/03/30 03:39:27;;;;;;;15.32;7.82;;;9.40;1.00;;;;;;5039161;28;20246;-76
2021/03/30 03:41:53;;;;;;;11.73;6.47;;;9.30;1.00;;;;;;5035947;28;20235;-77
2021/03/30 03:44:19;;;;;;;9.68;7.50;;;9.30;1.00;;;;;;5031891;28;20617;-77
2021/03/30 03:46:49;;;;;;;12.38;7.40;;;9.30;1.00;;;;;;5035313;28;20248;-79
2021/03/30 03:49:16;;;;;;;12.73;6.55;;;9.30;1.00;;;;;;5039684;28;21280;-76
2021/03/30 03:51:46;;;;;;;11.23;7.10;;;9.30;1.00;;;;;;5038359;28;21370;-77
2021/03/30 03:54:16;;;;;;;8.40;6.38;;;9.30;1.00;;;;;;5053622;28;20291;-76
2021/03/30 03:56:45;;;;;;;6.75;6.03;;;9.20;1.00;;;;;;5047903;28;20218;-78
2021/03/30 03:59:17;;;;;;;15.73;7.50;;;9.20;1.00;;;;;;5053265;28;20215;-76
2021/03/30 04:01:48;;;;;;;12.32;7.70;;;9.20;1.00;;;;;;5051518;28;20231;-76
2021/03/30 04:04:26;;;;;;;13.02;7.25;;;9.20;1.00;;;;;;5053753;28;20325;-77
2021/03/30 04:06:56;;;;;;;11.57;7.15;;;9.10;1.00;;;;;;5055505;28;21001;-76
2021/03/30 04:09:26;;;;;;;14.68;7.47;;;9.10;1.00;;;;;;5058057;28;20227;-77
2021/03/30 04:11:54;;;;;;;13.13;8.13;;;9.00;1.00;;;;;;5045705;28;20225;-75
2021/03/30 04:14:21;;;;;;;10.57;7.28;;;9.00;1.00;;;;;;5042559;28;20240;-78
2021/03/30 04:16:48;;;;;;;12.90;8.00;;;9.00;1.00;;;;;;5034843;28;20231;-79
2021/03/30 04:19:15;;;;;;;11.90;6.90;;;8.90;1.00;;;;;;5037651;28;20227;-79
2021/03/30 04:21:42;;;;;;;14.40;6.78;;;8.90;1.00;;;;;;5032133;28;20230;-78
2021/03/30 04:24:09;;;;;;;13.18;7.10;;;8.90;1.00;;;;;;5037681;28;20249;-77
2021/03/30 04:26:36;;;;;;;14.23;8.27;;;8.90;1.00;;;;;;5034188;28;20247;-76
2021/03/30 04:29:04;;;;;;;13.07;8.77;;;8.90;1.00;;;;;;5034620;28;20225;-77
2021/03/30 04:31:30;;;;;;;15.43;7.70;;;8.90;1.00;;;;;;5034810;28;20228;-77
2021/03/30 04:33:56;;;;;;;12.18;8.65;;;8.90;1.00;;;;;;5032969;28;20264;-77
2021/03/30 04:36:23;;;;;;;12.00;8.40;;;8.80;1.00;;;;;;5039527;28;20253;-76
2021/03/30 04:38:50;;;;;;;10.43;7.45;;;8.80;1.00;;;;;;5035858;28;20236;-78
2021/03/30 04:41:16;;;;;;;10.63;7.07;;;8.80;1.00;;;;;;5036456;28;20217;-78
2021/03/30 04:43:43;;;;;;;9.77;6.80;;;8.80;1.00;;;;;;5043131;28;20218;-78
2021/03/30 04:46:09;;;;;;;13.88;8.13;;;8.70;1.00;;;;;;5037457;28;20421;-78
2021/03/30 04:48:36;;;;;;;11.52;8.68;;;8.70;1.00;;;;;;5038457;28;20226;-77
2021/03/30 04:51:03;;;;;;;11.60;8.02;;;8.60;1.00;;;;;;5033779;28;20223;-76
2021/03/30 04:53:30;;;;;;;12.63;6.20;;;8.60;1.00;;;;;;5035395;28;20226;-76
2021/03/30 04:55:57;;;;;;;7.80;6.90;;;8.60;1.00;;;;;;5036938;28;20222;-79
2021/03/30 04:58:23;;;;;;;17.23;8.30;;;8.70;1.00;;;;;;5037586;28;20265;-77
2021/03/30 05:00:49;;;;;;;19.55;8.13;;;8.70;1.00;;;;;;5039745;28;20893;-76
2021/03/30 05:03:15;;;;;;;12.73;7.68;;;8.60;1.00;;;;;;5046727;28;20260;-78
2021/03/30 05:05:41;;;;;;;17.55;8.48;;;8.70;1.00;;;;;;5040627;28;20225;-78
2021/03/30 05:08:07;;;;;;;12.73;9.13;;;8.70;1.00;;;;;;5031066;28;20209;-77
2021/03/30 05:10:34;;;;;;;15.88;9.35;;;8.70;1.00;;;;;;5028700;28;20223;-76
2021/03/30 05:13:01;;;;;;;16.45;8.05;;;8.70;1.00;;;;;;5030981;28;21130;-77
2021/03/30 05:15:27;;;;;;;13.50;8.70;;;8.70;1.00;;;;;;5033285;28;20238;-77
2021/03/30 05:17:54;;;;;;;15.88;7.90;;;8.70;1.00;;;;;;5037597;28;20229;-77
2021/03/30 05:20:20;;;;;;;15.15;8.30;;;8.70;1.00;;;;;;5045386;28;20318;-77
2021/03/30 05:22:46;;;;;;;19.92;12.68;;;8.70;1.00;;;;;;5036936;28;20238;-77
2021/03/30 05:25:14;;;;;;;15.98;7.95;;;8.80;1.00;;;;;;5041152;28;20260;-78
2021/03/30 05:27:40;;;;;;;16.88;10.57;;;8.80;1.00;;;;;;5046204;28;20230;-79
2021/03/30 05:30:09;;;;;;;21.25;9.32;;;8.90;1.00;;;;;;5041646;28;20229;-80
2021/03/30 05:32:35;;;;;;;10.63;8.95;;;9.00;1.00;;;;;;5060320;28;20311;-79
2021/03/30 05:35:05;;;;;;;9.48;8.25;;;9.10;1.00;;;;;;5074161;28;20930;-78
2021/03/30 05:37:31;;;;;;;9.75;8.68;;;9.10;1.00;;;;;;5072370;28;20242;-79
2021/03/30 05:40:00;;;;;;;13.60;9.77;;;9.20;1.00;;;;;;5050906;28;20240;-79
2021/03/30 05:42:27;;;;;;;9.98;8.43;;;9.30;1.00;;;;;;5059846;28;20215;-77
2021/03/30 05:44:53;;;;;;;12.20;11.00;;;9.40;1.00;;;;;;5052772;28;20234;-77
2021/03/30 05:47:24;;;;;;;12.18;10.98;;;9.50;1.00;;;;;;5056290;28;20239;-77
2021/03/30 05:49:51;;;;;;;16.67;12.00;;;9.60;1.00;;;;;;5052976;28;20238;-80
2021/03/30 05:52:24;;;;;;;16.75;11.75;;;9.70;1.00;;;;;;5055997;28;20722;-79
2021/03/30 05:54:51;;;;;;;13.70;12.27;;;9.80;1.00;;;;;;5068806;28;20239;-79
2021/03/30 05:57:18;;;;;;;14.77;11.55;;;9.90;1.00;;;;;;5057742;28;20426;-80
2021/03/30 05:59:46;;;;;;;14.52;11.45;;;10.00;1.00;;;;;;5077078;28;20284;-79
2021/03/30 06:02:22;;;;;;;21.42;11.95;;;10.10;1.00;;;;;;5072998;28;20232;-81
2021/03/30 06:04:49;;;;;;;13.40;10.73;;;10.20;1.00;;;;;;5073209;28;20214;-81
2021/03/30 06:07:16;;;;;;;11.40;9.80;;;10.20;1.00;;;;;;5074667;27;20228;-80
2021/03/30 06:09:44;;;;;;;12.82;9.27;;;10.30;1.00;;;;;;5071446;28;20436;-80
2021/03/30 06:12:12;;;;;;;10.45;9.30;;;10.40;1.00;;;;;;5076905;28;20220;-79
2021/03/30 06:14:40;;;;;;;18.57;9.70;;;10.50;1.00;;;;;;5081087;27;20236;-80
2021/03/30 06:17:07;;;;;;;12.07;9.20;;;10.60;1.00;;;;;;5066191;28;20435;-81
2021/03/30 06:19:48;;;;;;;14.45;9.10;;;10.60;1.00;;;;;;5067998;28;20438;-82
2021/03/30 06:22:14;;;;;;;12.13;9.02;;;10.80;1.00;;;;;;5071336;28;20216;-81
2021/03/30 06:24:42;;;;;;;14.43;8.93;;;10.80;1.00;;;;;;5069030;28;20220;-81
2021/03/30 06:27:21;;;;;;;14.83;8.00;;;11.00;1.00;;;;;;5078097;27;20471;-80
2021/03/30 06:29:49;;;;;;;14.70;10.10;;;11.10;1.00;;;;;;5061909;28;20558;-81
2021/03/30 06:32:17;;;;;;;13.90;9.63;;;11.20;1.00;;;;;;5049228;28;20418;-80
2021/03/30 06:34:44;;;;;;;16.60;9.20;;;11.30;1.00;;;;;;5042284;28;20457;-79
2021/03/30 06:37:35;;;;;;;18.60;10.80;;;11.50;1.00;;;;;;5042411;28;20464;-79
2021/03/30 06:40:18;;;;;;;12.97;9.53;;;11.60;1.00;;;;;;5043300;28;20517;-79
2021/03/30 06:42:47;;;;;;;13.37;8.77;;;11.80;1.00;;;;;;5045523;28;20477;-78
2021/03/30 06:45:15;;;;;;;12.70;8.97;;;11.90;1.00;;;;;;5038020;28;20471;-80
2021/03/30 06:47:43;;;;;;;13.80;9.57;;;12.00;1.00;;;;;;5039373;28;20539;-80
2021/03/30 06:50:19;;;;;;;12.77;8.40;;;12.10;1.00;;;;;;5042220;28;20460;-79
2021/03/30 06:52:47;;;;;;;11.83;9.03;;;12.20;1.00;;;;;;5038735;28;20447;-79
2021/03/30 06:55:14;;;;;;;10.73;8.33;;;12.30;1.00;;;;;;5040308;28;20589;-78
2021/03/30 06:57:43;;;;;;;14.30;9.77;;;12.40;1.00;;;;;;5046240;28;20450;-79
2021/03/30 07:00:13;;;;;;;12.03;8.40;;;12.60;1.00;;;;;;5041586;28;20452;-80
2021/03/30 07:02:45;;;;;;;13.50;8.80;;;12.60;1.00;;;;;;5041803;28;20525;-79
2021/03/30 07:05:23;;;;;;;11.17;10.07;;;12.80;1.00;;;;;;5043523;28;20444;-81
2021/03/30 07:07:54;;;;;;;17.90;9.87;;;12.90;1.00;;;;;;5051108;28;20456;-79
2021/03/30 07:10:20;;;;;;;11.80;9.77;;;13.00;1.00;;;;;;5061324;28;20418;-79
2021/03/30 07:12:49;;;;;;;20.13;10.00;;;13.20;1.00;;;;;;5049703;28;20456;-80
2021/03/30 07:15:17;;;;;;;11.20;9.60;;;13.30;1.00;;;;;;5048472;28;20438;-79
2021/03/30 07:17:48;;;;;;;13.00;9.20;;;13.40;1.00;;;;;;5047593;28;20895;-79
2021/03/30 07:20:18;;;;;;;9.73;8.60;;;13.50;1.00;;;;;;5043633;28;20528;-81
2021/03/30 07:22:47;;;;;;;13.57;11.70;;;13.60;1.00;;;;;;5046046;28;20417;-81
2021/03/30 07:25:21;;;;;;;13.33;10.07;;;13.80;1.00;;;;;;5043573;28;20503;-81
2021/03/30 07:27:53;;;;;;;11.43;9.43;;;13.90;1.00;;;;;;5070115;28;20428;-79
2021/03/30 07:30:22;;;;;;;13.10;10.40;;;14.10;1.00;;;;;;5052064;28;20456;-81
2021/03/30 07:33:01;;;;;;;12.40;9.90;;;14.30;1.00;;;;;;5050910;28;20436;-80
2021/03/30 07:35:29;;;;;;;16.57;11.93;;;14.40;1.00;;;;;;5050993;28;20486;-80
2021/03/30 07:38:03;;;;;;;10.77;9.50;;;14.50;1.00;;;;;;5062880;28;20441;-81
2021/03/30 07:40:30;;;;;;;12.93;9.93;;;14.60;1.00;;;;;;5053974;28;21844;-79
2021/03/30 07:42:58;;;;;;;14.13;9.77;;;14.80;1.00;;;;;;5058623;28;20446;-80
2021/03/30 07:45:29;;;;;;;11.37;10.03;;;14.80;1.00;;;;;;5063387;28;20441;-82
2021/03/30 07:47:57;;;;;;;14.00;10.57;;;14.90;1.00;;;;;;5046720;28;20445;-79
2021/03/30 07:50:44;;;;;;;14.97;11.70;;;15.00;1.00;;;;;;5042043;28;20432;-80
2021/03/30 07:53:37;;;;;;;13.23;10.40;;;15.10;1.00;;;;;;5043117;28;20502;-82
2021/03/30 07:56:04;;;;;;;14.83;10.03;;;15.30;1.00;;;;;;5039396;28;20478;-80
2021/03/30 07:58:42;;;;;;;12.60;10.60;;;15.40;1.00;;;;;;5054768;28;20445;-79
2021/03/30 08:01:10;;;;;;;15.57;11.33;;;15.60;1.00;;;;;;5041641;28;20580;-79
2021/03/30 08:03:37;;;;;;;14.40;11.27;;;15.70;1.00;;;;;;5041255;28;20507;-79
2021/03/30 08:06:18;;;;;;;14.90;11.80;;;15.90;1.00;;;;;;5045215;28;20438;-78
2021/03/30 08:08:58;;;;;;;15.37;11.37;;;16.00;1.00;;;;;;5039766;28;20407;-79
2021/03/30 08:12:01;;;;;;;15.70;11.93;;;16.10;1.00;;;;;;5044277;28;21312;-79
2021/03/30 08:14:39;;;;;;;12.80;11.43;;;16.20;1.00;;;;;;5036532;28;20497;-81
2021/03/30 08:17:11;;;;;;;13.20;11.53;;;16.40;1.00;;;;;;5036081;28;20431;-79
2021/03/30 08:20:04;;;;;;;14.30;12.43;;;16.50;1.00;;;;;;5035576;28;20941;-77
2021/03/30 08:23:03;;;;;;;17.00;10.90;;;16.70;1.00;;;;;;5041533;28;20461;-80
2021/03/30 08:25:37;;;;;;;14.27;11.80;;;16.90;1.00;;;;;;5037297;28;20937;-78
2021/03/30 08:28:05;;;;;;;18.70;13.43;;;17.10;1.00;;;;;;5040334;28;20509;-81
2021/03/30 08:30:55;;;;;;;18.23;12.77;;;17.20;1.00;;;;;;5046381;28;20442;-79
2021/03/30 08:33:32;;;;;;;17.20;13.27;;;17.30;1.00;;;;;;5046904;28;20549;-80
2021/03/30 08:36:21;;;;;;;23.23;13.23;;;17.40;1.00;;;;;;5056567;28;20817;-79
2021/03/30 08:38:49;;;;;;;16.27;12.90;;;17.50;1.00;;;;;;5055975;28;20523;-80
2021/03/30 08:41:49;;;;;;;15.33;12.77;;;17.60;1.00;;;;;;5040308;28;20470;-79
2021/03/30 08:44:17;;;;;;;21.80;18.07;;;17.70;1.00;;;;;;5036431;28;20516;-79
2021/03/30 08:46:47;;;;;;;17.17;13.67;;;17.80;1.00;;;;;;5030933;28;20446;-78
2021/03/30 08:49:27;;;;;;;19.80;11.70;;;17.90;1.00;;;;;;5032045;28;20562;-78
2021/03/30 08:51:53;;;;;;;16.53;11.30;;;18.10;1.00;;;;;;5037570;28;20711;-77
2021/03/30 08:54:24;;;;;;;13.20;10.70;;;18.20;1.00;;;;;;5031995;28;20486;-78
2021/03/30 08:56:51;;;;;;;19.07;11.93;;;18.40;1.00;;;;;;5053053;28;20498;-78
2021/03/30 08:59:20;;;;;;;17.37;13.07;;;18.50;1.00;;;;;;5026137;28;20483;-78
2021/03/30 09:01:56;;;;;;;16.93;11.30;;;18.70;1.00;;;;;;5029850;28;20453;-77
2021/03/30 09:04:22;;;;;;;15.33;12.83;;;18.90;1.00;;;;;;5029858;28;20536;-77
2021/03/30 09:06:53;;;;;;;15.17;10.83;;;19.10;1.00;;;;;;5030939;28;21183;-76
2021/03/30 09:09:21;;;;;;;14.43;11.10;;;19.10;1.00;;;;;;5030712;28;20960;-79
2021/03/30 09:11:47;;;;;;;14.10;10.60;;;19.20;1.00;;;;;;5025041;28;20464;-77
2021/03/30 09:14:17;;;;;;;13.83;10.70;;;19.20;1.00;;;;;;5026298;28;20518;-79
2021/03/30 09:16:45;;;;;;;15.63;10.77;;;19.30;1.00;;;;;;5027733;28;20449;-78
2021/03/30 09:19:25;;;;;;;13.73;10.10;;;19.40;1.00;;;;;;5029737;28;20495;-78
2021/03/30 09:21:59;;;;;;;14.27;10.90;;;19.70;1.00;;;;;;5029173;28;20459;-77
2021/03/30 09:24:34;;;;;;;14.37;11.33;;;20.20;1.00;;;;;;5036947;28;20424;-77
2021/03/30 09:27:02;;;;;;;13.27;9.90;;;21.40;1.00;;;;;;5034464;28;20529;-77
2021/03/30 09:29:31;;;;;;;17.97;11.60;;;22.70;1.00;;;;;;5037514;28;20444;-77
2021/03/30 09:31:59;;;;;;;14.83;12.30;;;24.20;1.00;;;;;;5035480;28;20471;-77
2021/03/30 09:34:26;;;;;;;16.70;12.30;;;25.30;1.00;;;;;;5044256;28;20555;-77
2021/03/30 09:36:56;;;;;;;15.10;11.17;;;26.20;1.00;;;;;;5037259;28;20432;-78
2021/03/30 09:39:25;;;;;;;14.03;11.87;;;27.30;1.00;;;;;;5028355;28;20484;-77
2021/03/30 09:41:52;;;;;;;14.90;10.90;;;28.10;1.00;;;;;;5028376;28;20551;-78
2021/03/30 09:44:19;;;;;;;12.70;10.90;;;28.80;1.00;;;;;;5029756;28;21314;-78
2021/03/30 09:46:47;;;;;;;15.23;11.67;;;28.80;1.00;;;;;;5035272;28;21140;-78
2021/03/30 09:49:15;;;;;;;19.90;12.33;;;29.20;1.00;;;;;;5041421;28;20477;-79
2021/03/30 09:51:45;;;;;;;14.17;10.73;;;29.10;1.00;;;;;;5036331;28;20463;-77
2021/03/30 09:54:22;;;;;;;16.13;12.13;;;29.60;1.00;;;;;;5047902;28;20577;-79
2021/03/30 09:56:56;;;;;;;18.20;11.17;;;29.50;1.00;;;;;;5035247;28;20452;-77
2021/03/30 09:59:23;;;;;;;11.87;10.37;;;29.90;1.00;;;;;;5034388;28;20485;-77
2021/03/30 10:01:50;;;;;;;11.10;10.00;;;30.30;1.00;;;;;;5041393;28;20445;-78
2021/03/30 10:04:16;;;;;;;14.20;10.30;;;30.90;1.00;;;;;;5038496;28;20508;-78
2021/03/30 10:06:44;;;;;;;15.27;10.13;;;31.20;1.00;;;;;;5037136;28;20411;-77
2021/03/30 10:09:13;;;;;;;14.43;10.70;;;31.50;1.00;;;;;;5023799;28;21307;-78
2021/03/30 10:11:40;;;;;;;11.97;10.27;;;31.60;1.00;;;;;;5030938;28;20467;-76
2021/03/30 10:14:20;;;;;;;13.73;11.63;;;31.90;1.00;;;;;;5032399;28;20415;-77
2021/03/30 10:16:47;;;;;;;11.60;10.40;;;31.30;1.00;;;;;;5031465;28;20411;-77
2021/03/30 10:19:14;;;;;;;13.73;11.37;;;31.50;1.00;;;;;;5034106;28;20471;-76
2021/03/30 10:21:45;;;;;;;12.00;10.80;;;31.40;1.00;;;;;;5026961;28;20529;-75
2021/03/30 10:24:16;;;;;;;12.13;10.80;;;31.60;1.00;;;;;;5034314;28;21291;-76
2021/03/30 10:26:43;;;;;;;12.00;10.53;;;32.00;1.00;;;;;;5031041;28;20503;-77
2021/03/30 10:29:14;;;;;;;19.80;14.80;;;32.20;1.00;;;;;;5037254;28;20513;-76
2021/03/30 10:31:45;;;;;;;12.97;11.57;;;32.50;1.00;;;;;;5038987;28;20461;-77
2021/03/30 10:34:30;;;;;;;15.57;11.97;;;32.90;1.00;;;;;;5027887;28;20511;-74
2021/03/30 10:36:59;;;;;;;13.37;10.90;;;33.50;1.00;;;;;;5029714;28;20451;-76
2021/03/30 10:39:30;;;;;;;14.23;12.10;;;34.00;1.00;;;;;;5025752;28;21031;-76
2021/03/30 10:42:05;;;;;;;15.30;11.00;;;34.20;1.00;;;;;;5031038;28;21295;-76
2021/03/30 10:44:39;;;;;;;11.93;10.60;;;33.80;1.00;;;;;;5030086;28;20456;-76
2021/03/30 10:47:17;;;;;;;13.97;10.40;;;33.20;1.00;;;;;;5029538;28;21561;-76
2021/03/30 10:49:44;;;;;;;11.67;8.83;;;33.40;1.00;;;;;;5025253;28;20444;-75
2021/03/30 10:52:17;;;;;;;13.40;10.07;;;33.70;1.00;;;;;;5036029;28;20574;-74
2021/03/30 10:54:44;;;;;;;11.13;9.30;;;33.90;1.00;;;;;;5032216;28;20452;-77
2021/03/30 10:57:13;;;;;;;10.47;9.47;;;33.90;1.00;;;;;;5030680;28;21217;-73
2021/03/30 10:59:40;;;;;;;11.17;9.13;;;33.60;1.00;;;;;;5027136;28;20461;-75
2021/03/30 11:02:06;;;;;;;11.90;9.07;;;34.10;1.00;;;;;;5024184;28;21185;-73
2021/03/30 11:04:33;;;;;;;11.33;10.23;;;34.40;1.00;;;;;;5020957;28;20558;-75
2021/03/30 11:06:59;;;;;;;10.27;8.97;;;34.80;1.00;;;;;;5029481;28;20988;-76
2021/03/30 11:09:26;;;;;;;12.00;9.00;;;35.10;1.00;;;;;;5028996;28;21501;-75
2021/03/30 11:11:53;;;;;;;11.23;9.23;;;35.50;1.00;;;;;;5033800;28;20437;-74
2021/03/30 11:14:21;;;;;;;12.87;10.60;;;36.00;1.00;;;;;;5028681;28;20971;-74
2021/03/30 11:16:48;;;;;;;13.93;11.93;;;36.70;1.00;;;;;;5038718;28;20436;-77
2021/03/30 11:19:15;;;;;;;11.10;10.00;;;36.50;1.00;;;;;;5032017;28;20550;-72
2021/03/30 11:21:42;;;;;;;12.43;9.77;;;36.40;1.00;;;;;;5033897;28;20858;-75
2021/03/30 11:24:12;;;;;;;10.90;9.87;;;36.40;1.00;;;;;;5041261;28;20459;-73
2021/03/30 11:26:41;;;;;;;13.80;11.37;;;36.80;1.00;;;;;;5037823;28;20449;-75
2021/03/30 11:29:10;;;;;;;11.20;10.17;;;37.20;1.00;;;;;;5027937;28;20492;-73
2021/03/30 11:32:00;;;;;;;16.23;10.93;;;37.00;1.00;;;;;;5027067;28;20445;-76
2021/03/30 11:34:30;;;;;;;11.07;9.40;;;36.30;1.00;;;;;;5029546;28;20940;-75
2021/03/30 11:37:02;;;;;;;9.90;8.27;;;35.90;1.00;;;;;;5030635;28;20444;-76
2021/03/30 11:39:28;;;;;;;9.63;8.17;;;35.80;1.00;;;;;;5030719;28;20780;-74
2021/03/30 11:41:55;;;;;;;10.87;9.77;;;35.40;1.00;;;;;;5031204;28;20488;-75
2021/03/30 11:44:23;;;;;;;11.50;10.30;;;35.30;1.00;;;;;;5029566;28;20938;-75
2021/03/30 11:46:49;;;;;;;9.07;8.27;;;35.80;1.00;;;;;;5034775;28;20447;-76
2021/03/30 11:49:15;;;;;;;9.27;8.33;;;36.80;1.00;;;;;;5031228;28;20462;-74
2021/03/30 11:51:42;;;;;;;11.90;8.03;;;37.20;1.00;;;;;;5033833;28;20456;-75
2021/03/30 11:54:08;;;;;;;13.80;9.90;;;37.20;1.00;;;;;;5029220;28;20473;-75
2021/03/30 11:56:35;;;;;;;10.60;9.57;;;37.40;1.00;;;;;;5038846;28;20440;-75
2021/03/30 11:59:02;;;;;;;16.40;9.63;;;37.30;1.00;;;;;;5031180;28;20469;-75
2021/03/30 12:01:29;;;;;;;11.10;10.10;;;37.60;1.00;;;;;;5029306;28;20449;-75
2021/03/30 12:03:55;;;;;;;11.47;8.80;;;38.10;1.00;;;;;;5032575;28;20473;-75
2021/03/30 12:06:22;;;;;;;10.07;9.17;;;38.50;1.00;;;;;;5034191;28;21207;-73
2021/03/30 12:08:48;;;;;;;10.73;9.63;;;38.60;1.00;;;;;;5030000;28;20579;-76
2021/03/30 12:11:14;;;;;;;10.90;9.50;;;38.80;1.00;;;;;;5029411;28;21327;-73
2021/03/30 12:13:41;;;;;;;11.00;10.00;;;38.80;1.00;;;;;;5030577;28;20448;-74
2021/03/30 12:16:08;;;;;;;14.00;10.30;;;38.50;1.00;;;;;;5032759;28;20651;-75
2021/03/30 12:18:34;;;;;;;12.53;11.30;;;38.20;1.00;;;;;;5030823;28;20444;-75
2021/03/30 12:21:01;;;;;;;19.10;11.33;;;38.20;1.00;;;;;;5034292;28;20448;-75
2021/03/30 12:23:27;;;;;;;10.70;9.60;;;38.20;1.00;;;;;;5033683;28;20460;-75
2021/03/30 12:25:54;;;;;;;11.30;10.30;;;38.80;1.00;;;;;;5028586;28;20440;-73
2021/03/30 12:28:21;;;;;;;16.50;10.43;;;39.10;1.00;;;;;;5031370;28;21528;-75
2021/03/30 12:30:47;;;;;;;14.50;11.27;;;39.40;1.00;;;;;;5030336;28;20858;-75
2021/03/30 12:33:15;;;;;;;13.40;12.00;;;39.40;1.00;;;;;;5030790;28;20564;-75
2021/03/30 12:35:42;;;;;;;12.13;10.90;;;39.50;1.00;;;;;;5033794;28;20597;-75
2021/03/30 12:38:08;;;;;;;11.40;10.40;;;39.50;1.00;;;;;;5031323;28;20528;-76
2021/03/30 12:40:36;;;;;;;12.37;11.17;;;40.00;1.00;;;;;;5029750;28;20479;-76
2021/03/30 12:43:03;;;;;;;13.23;11.83;;;39.30;1.00;;;;;;5030339;28;20485;-74
2021/03/30 12:45:30;;;;;;;12.30;11.20;;;39.00;1.00;;;;;;5032906;28;20428;-75
2021/03/30 12:47:56;;;;;;;11.47;10.30;;;39.20;1.00;;;;;;5035718;28;20536;-75
2021/03/30 12:50:27;;;;;;;12.17;10.80;;;39.20;1.00;;;;;;5047163;28;20415;-75
2021/03/30 12:52:54;;;;;;;11.97;10.77;;;39.50;1.00;;;;;;5048040;28;20545;-74
2021/03/30 12:55:21;;;;;;;10.93;9.83;;;39.50;1.00;;;;;;5050124;28;20485;-73
2021/03/30 12:57:47;;;;;;;12.07;10.97;;;39.50;1.00;;;;;;5051257;28;20479;-74
2021/03/30 13:00:14;;;;;;;14.17;11.80;;;39.90;1.00;;;;;;5043586;28;20543;-74